Time;durP1;ratioP1;P1;durP2;ratioP2;P2;SDS_P1;SDS_P2;PMS_P1;PMS_P2;Temp;Humidity;BMP_temperature;BMP_pressure;BME280_temperature;BME280_humidity;BME280_pressure;Samples;Min_cycle;Max_cycle;Signal;HPM_P1;HPM_P2
2022/01/30 00:01:49;;;;;;;;;;;;;;;;;;5090536;28;20286;-58
2022/01/30 00:04:15;;;;;;;;;;;;;;;;;;5092263;28;19928;-58
2022/01/30 00:06:41;;;;;;;;;;;;;;;;;;5092799;28;20496;-58
2022/01/30 00:09:14;;;;;;;;;;;;;;;;;;5092239;28;19927;-58
2022/01/30 00:11:42;;;;;;;;;;;;;;;;;;5092766;28;19935;-58
2022/01/30 00:14:12;;;;;;;;;;;;;;;;;;5092907;28;19928;-58
2022/01/30 00:16:38;;;;;;;;;;;;;;;;;;5092087;28;19924;-58
2022/01/30 00:19:11;;;;;;;;;;;;;;;;;;5092667;28;19924;-58
2022/01/30 00:21:41;;;;;;;;;;;;;;;;;;5092607;28;20442;-58
2022/01/30 00:24:12;;;;;;;;;;;;;;;;;;5091175;28;19925;-58
2022/01/30 00:26:40;;;;;;;;;;;;;;;;;;5092443;28;19928;-58
2022/01/30 00:29:06;;;;;;;;;;;;;;;;;;5092715;28;19969;-58
2022/01/30 00:31:33;;;;;;;;;;;;;;;;;;5091691;28;19979;-58
2022/01/30 00:34:00;;;;;;;;;;;;;;;;;;5092522;28;19924;-58
2022/01/30 00:36:26;;;;;;;;;;;;;;;;;;5092197;28;19924;-58
2022/01/30 00:38:52;;;;;;;;;;;;;;;;;;5091689;28;19924;-58
2022/01/30 00:41:18;;;;;;;;;;;;;;;;;;5092665;28;19950;-58
2022/01/30 00:43:44;;;;;;;;;;;;;;;;;;5092023;28;19928;-59
2022/01/30 00:46:10;;;;;;;;;;;;;;;;;;5091789;28;19928;-59
2022/01/30 00:48:36;;;;;;;;;;;;;;;;;;5091918;28;19993;-58
2022/01/30 00:51:02;;;;;;;;;;;;;;;;;;5092397;28;19924;-59
2022/01/30 00:53:28;;;;;;;;;;;;;;;;;;5091052;28;19928;-58
2022/01/30 00:55:54;;;;;;;;;;;;;;;;;;5092188;28;19950;-58
2022/01/30 00:58:21;;;;;;;;;;;;;;;;;;5091472;28;19974;-58
2022/01/30 01:00:47;;;;;;;;;;;;;;;;;;5091871;28;19924;-58
2022/01/30 01:03:13;;;;;;;;;;;;;;;;;;5091954;28;19924;-58
2022/01/30 01:05:39;;;;;;;;;;;;;;;;;;5091106;28;19985;-58
2022/01/30 01:08:12;;;;;;;;;;;;;;;;;;5091889;28;19931;-58
2022/01/30 01:10:42;;;;;;;;;;;;;;;;;;5092054;28;19978;-58
2022/01/30 01:13:20;;;;;;;;;;;;;;;;;;5091335;28;19932;-58
2022/01/30 01:23:59;;;;;;;;;;;;;;;;;;5091883;28;20393;-58
2022/01/30 01:26:25;;;;;;;;;;;;;;;;;;5091408;28;20278;-58
2022/01/30 01:28:51;;;;;;;;;;;;;;;;;;5091211;28;19986;-58
2022/01/30 01:31:17;;;;;;;;;;;;;;;;;;5091716;28;19939;-58
2022/01/30 01:33:58;;;;;;;;;;;;;;;;;;5090726;28;19924;-58
2022/01/30 01:36:24;;;;;;;;;;;;;;;;;;5095143;28;19924;-58
2022/01/30 01:38:50;;;;;;;;;;;;;;;;;;5095985;28;20023;-58
2022/01/30 01:41:19;;;;;;;;;;;;;;;;;;5095115;28;19924;-58
2022/01/30 01:43:45;;;;;;;;;;;;;;;;;;5095323;28;19928;-58
2022/01/30 01:46:16;;;;;;;;;;;;;;;;;;5095957;28;19924;-58
2022/01/30 01:48:43;;;;;;;;;;;;;;;;;;5094813;28;20007;-59
2022/01/30 01:51:16;;;;;;;;;;;;;;;;;;5095814;28;19931;-59
2022/01/30 01:53:42;;;;;;;;;;;;;;;;;;5095297;28;19924;-58
2022/01/30 01:56:08;;;;;;;;;;;;;;;;;;5094870;28;19931;-59
2022/01/30 01:58:34;;;;;;;;;;;;;;;;;;5095544;28;20388;-58
2022/01/30 02:01:02;;;;;;;;;;;;;;;;;;5095480;28;19928;-58
2022/01/30 02:03:28;;;;;;;;;;;;;;;;;;5094438;28;19924;-58
2022/01/30 02:05:57;;;;;;;;;;;;;;;;;;5095377;28;19925;-58
2022/01/30 02:08:32;;;;;;;;;;;;;;;;;;5095326;28;20517;-58
2022/01/30 02:11:02;;;;;;;;;;;;;;;;;;5094855;28;19924;-58
2022/01/30 02:24:31;;;;;;;;;;;;;;;;;;5093873;28;20397;-58
2022/01/30 02:26:57;;;;;;;;;;;;;;;;;;5095178;28;19924;-58
2022/01/30 02:29:23;;;;;;;;;;;;;;;;;;5094791;28;20380;-58
2022/01/30 02:31:49;;;;;;;;;;;;;;;;;;5094076;28;20355;-59
2022/01/30 02:34:15;;;;;;;;;;;;;;;;;;5094708;28;19924;-59
2022/01/30 02:36:44;;;;;;;;;;;;;;;;;;5094738;28;19924;-59
2022/01/30 02:39:10;;;;;;;;;;;;;;;;;;5094227;28;19928;-58
2022/01/30 02:41:38;;;;;;;;;;;;;;;;;;5094365;28;19984;-59
2022/01/30 02:44:11;;;;;;;;;;;;;;;;;;5093910;28;19924;-58
2022/01/30 02:46:41;;;;;;;;;;;;;;;;;;5093852;28;19924;-58
2022/01/30 02:49:13;;;;;;;;;;;;;;;;;;5094730;28;20321;-58
2022/01/30 02:51:47;;;;;;;;;;;;;;;;;;5093612;28;20018;-58
2022/01/30 02:54:13;;;;;;;;;;;;;;;;;;5094503;28;19966;-58
2022/01/30 02:56:40;;;;;;;;;;;;;;;;;;5094067;28;19924;-58
2022/01/30 02:59:06;;;;;;;;;;;;;;;;;;5093948;28;19978;-58
2022/01/30 03:01:32;;;;;;;;;;;;;;;;;;5094040;28;19924;-58
2022/01/30 03:03:58;;;;;;;;;;;;;;;;;;5094228;28;20420;-58
2022/01/30 03:06:24;;;;;;;;;;;;;;;;;;5093120;28;19969;-58
2022/01/30 03:08:50;;;;;;;;;;;;;;;;;;5094314;28;19996;-58
2022/01/30 03:11:16;;;;;;;;;;;;;;;;;;5094102;28;19932;-58
2022/01/30 03:13:42;;;;;;;;;;;;;;;;;;5093299;28;19953;-58
2022/01/30 03:16:08;;;;;;;;;;;;;;;;;;5094074;28;19928;-58
2022/01/30 03:18:35;;;;;;;;;;;;;;;;;;5093619;28;19927;-58
2022/01/30 03:21:02;;;;;;;;;;;;;;;;;;5093340;28;20329;-58
2022/01/30 03:23:29;;;;;;;;;;;;;;;;;;5093534;28;19924;-58
2022/01/30 03:25:58;;;;;;;;;;;;;;;;;;5094024;28;19932;-58
2022/01/30 03:28:24;;;;;;;;;;;;;;;;;;5092981;28;19924;-58
2022/01/30 03:30:54;;;;;;;;;;;;;;;;;;5093660;28;20294;-58
2022/01/30 03:33:20;;;;;;;;;;;;;;;;;;5093077;28;20061;-58
2022/01/30 03:35:46;;;;;;;;;;;;;;;;;;5093400;28;19979;-58
2022/01/30 03:38:14;;;;;;;;;;;;;;;;;;5093558;28;19928;-58
2022/01/30 03:40:40;;;;;;;;;;;;;;;;;;5092482;28;20385;-58
2022/01/30 03:43:06;;;;;;;;;;;;;;;;;;5093661;28;19936;-58
2022/01/30 03:45:32;;;;;;;;;;;;;;;;;;5092955;28;19924;-59
2022/01/30 03:47:58;;;;;;;;;;;;;;;;;;5092879;28;19924;-59
2022/01/30 03:50:24;;;;;;;;;;;;;;;;;;5092949;28;19970;-58
2022/01/30 03:52:50;;;;;;;;;;;;;;;;;;5093390;28;19978;-58
2022/01/30 03:55:16;;;;;;;;;;;;;;;;;;5092725;28;19924;-58
2022/01/30 03:57:42;;;;;;;;;;;;;;;;;;5092811;28;19924;-58
2022/01/30 04:00:08;;;;;;;;;;;;;;;;;;5092590;28;19924;-58
2022/01/30 04:02:35;;;;;;;;;;;;;;;;;;5092041;28;19924;-58
2022/01/30 04:05:01;;;;;;;;;;;;;;;;;;5093160;28;19969;-58
2022/01/30 04:07:27;;;;;;;;;;;;;;;;;;5092575;28;19924;-58
2022/01/30 04:09:53;;;;;;;;;;;;;;;;;;5092575;28;19928;-58
2022/01/30 04:12:19;;;;;;;;;;;;;;;;;;5093015;28;19924;-58
2022/01/30 04:14:45;;;;;;;;;;;;;;;;;;5092786;28;19924;-58
2022/01/30 04:17:13;;;;;;;;;;;;;;;;;;5092127;28;19928;-58
2022/01/30 04:19:39;;;;;;;;;;;;;;;;;;5092609;28;19924;-58
2022/01/30 04:22:05;;;;;;;;;;;;;;;;;;5092672;28;19924;-58
2022/01/30 04:24:31;;;;;;;;;;;;;;;;;;5091857;28;19931;-58
2022/01/30 04:26:57;;;;;;;;;;;;;;;;;;5092741;28;19924;-58
2022/01/30 04:29:23;;;;;;;;;;;;;;;;;;5091985;28;19970;-58
2022/01/30 04:31:50;;;;;;;;;;;;;;;;;;5092564;28;19927;-58
2022/01/30 04:34:16;;;;;;;;;;;;;;;;;;5092481;28;19931;-58
2022/01/30 04:36:55;;;;;;;;;;;;;;;;;;5091397;28;19931;-58
2022/01/30 04:39:37;;;;;;;;;;;;;;;;;;5092702;28;19924;-58
2022/01/30 04:42:21;;;;;;;;;;;;;;;;;;5092500;28;20015;-58
2022/01/30 04:53:18;;;;;;;;;;;;;;;;;;5092355;28;19923;-58
2022/01/30 04:56:27;;;;;;;;;;;;;;;;;;5092237;28;19928;-58
2022/01/30 04:58:55;;;;;;;;;;;;;;;;;;5091124;28;19924;-58
2022/01/30 05:01:35;;;;;;;;;;;;;;;;;;5092052;28;19924;-58
2022/01/30 05:04:16;;;;;;;;;;;;;;;;;;5092413;28;20312;-58
2022/01/30 05:06:55;;;;;;;;;;;;;;;;;;5091152;28;20030;-58
2022/01/30 05:09:21;;;;;;;;;;;;;;;;;;5091918;28;19959;-58
2022/01/30 05:11:48;;;;;;;;;;;;;;;;;;5090915;28;19981;-58
2022/01/30 05:14:15;;;;;;;;;;;;;;;;;;5092185;28;19928;-58
2022/01/30 05:16:41;;;;;;;;;;;;;;;;;;5091570;28;19924;-58
2022/01/30 05:19:07;;;;;;;;;;;;;;;;;;5091031;28;19944;-62
2022/01/30 05:21:34;;;;;;;;;;;;;;;;;;5091001;28;21302;-58
2022/01/30 05:24:01;;;;;;;;;;;;;;;;;;5091891;28;19924;-58
2022/01/30 05:26:27;;;;;;;;;;;;;;;;;;5090803;28;19924;-58
2022/01/30 05:28:53;;;;;;;;;;;;;;;;;;5091994;28;19993;-58
2022/01/30 05:31:19;;;;;;;;;;;;;;;;;;5091873;28;19924;-58
2022/01/30 05:33:45;;;;;;;;;;;;;;;;;;5090755;28;20328;-58
2022/01/30 05:36:11;;;;;;;;;;;;;;;;;;5091862;28;19969;-58
2022/01/30 05:38:37;;;;;;;;;;;;;;;;;;5091328;28;20011;-58
2022/01/30 05:41:03;;;;;;;;;;;;;;;;;;5091029;28;19932;-58
2022/01/30 05:43:31;;;;;;;;;;;;;;;;;;5091426;28;19928;-58
2022/01/30 05:46:07;;;;;;;;;;;;;;;;;;5091767;28;19950;-58
2022/01/30 05:48:33;;;;;;;;;;;;;;;;;;5090648;28;19924;-58
2022/01/30 05:51:00;;;;;;;;;;;;;;;;;;5091732;28;19924;-58
2022/01/30 05:53:26;;;;;;;;;;;;;;;;;;5091102;28;19924;-58
2022/01/30 05:55:52;;;;;;;;;;;;;;;;;;5091170;28;19924;-58
2022/01/30 05:58:18;;;;;;;;;;;;;;;;;;5091613;28;19924;-58
2022/01/30 06:00:44;;;;;;;;;;;;;;;;;;5091215;28;19928;-58
2022/01/30 06:03:10;;;;;;;;;;;;;;;;;;5091162;28;19925;-58
2022/01/30 06:05:36;;;;;;;;;;;;;;;;;;5092174;28;19954;-58
2022/01/30 06:08:11;;;;;;;;;;;;;;;;;;5090543;28;19924;-58
2022/01/30 06:10:37;;;;;;;;;;;;;;;;;;5091408;28;19924;-58
2022/01/30 06:13:03;;;;;;;;;;;;;;;;;;5091331;28;20597;-58
2022/01/30 06:15:29;;;;;;;;;;;;;;;;;;5090407;28;19969;-58
2022/01/30 06:17:55;;;;;;;;;;;;;;;;;;5091089;28;20623;-58
2022/01/30 06:20:21;;;;;;;;;;;;;;;;;;5091324;28;19936;-58
2022/01/30 06:22:47;;;;;;;;;;;;;;;;;;5092353;28;19924;-58
2022/01/30 06:25:13;;;;;;;;;;;;;;;;;;5095215;28;19928;-58
2022/01/30 06:27:39;;;;;;;;;;;;;;;;;;5094628;28;19932;-58
2022/01/30 06:30:05;;;;;;;;;;;;;;;;;;5094392;28;19924;-58
2022/01/30 06:32:32;;;;;;;;;;;;;;;;;;5094847;28;19969;-58
2022/01/30 06:34:58;;;;;;;;;;;;;;;;;;5094863;28;19924;-58
2022/01/30 06:37:24;;;;;;;;;;;;;;;;;;5093952;28;19978;-58
2022/01/30 06:39:50;;;;;;;;;;;;;;;;;;5094727;28;20294;-58
2022/01/30 06:42:16;;;;;;;;;;;;;;;;;;5094910;28;19927;-58
2022/01/30 06:44:43;;;;;;;;;;;;;;;;;;5093613;28;20048;-58
2022/01/30 06:47:10;;;;;;;;;;;;;;;;;;5094844;28;19924;-58
2022/01/30 06:49:36;;;;;;;;;;;;;;;;;;5094245;28;20018;-58
2022/01/30 06:52:02;;;;;;;;;;;;;;;;;;5093859;28;19924;-58
2022/01/30 06:54:28;;;;;;;;;;;;;;;;;;5094321;28;19930;-58
2022/01/30 06:56:54;;;;;;;;;;;;;;;;;;5094587;28;20420;-58
2022/01/30 06:59:20;;;;;;;;;;;;;;;;;;5093635;28;19924;-58
2022/01/30 07:01:48;;;;;;;;;;;;;;;;;;5094069;28;20424;-57
2022/01/30 07:04:14;;;;;;;;;;;;;;;;;;5093518;28;19931;-59
2022/01/30 07:06:40;;;;;;;;;;;;;;;;;;5094183;28;19924;-57
2022/01/30 07:09:06;;;;;;;;;;;;;;;;;;5094260;28;19924;-58
2022/01/30 07:11:32;;;;;;;;;;;;;;;;;;5093400;28;19969;-58
2022/01/30 07:13:58;;;;;;;;;;;;;;;;;;5094061;28;19924;-59
2022/01/30 07:16:25;;;;;;;;;;;;;;;;;;5093104;28;20390;-59
2022/01/30 07:18:51;;;;;;;;;;;;;;;;;;5092809;28;19928;-60
2022/01/30 07:21:17;;;;;;;;;;;;;;;;;;5093991;28;19969;-59
2022/01/30 07:23:43;;;;;;;;;;;;;;;;;;5093480;28;19982;-60
2022/01/30 07:26:09;;;;;;;;;;;;;;;;;;5093105;28;19927;-60
2022/01/30 07:28:35;;;;;;;;;;;;;;;;;;5093078;28;19928;-58
2022/01/30 07:31:01;;;;;;;;;;;;;;;;;;5093670;28;19977;-59
2022/01/30 07:33:27;;;;;;;;;;;;;;;;;;5092018;28;19970;-58
2022/01/30 07:35:55;;;;;;;;;;;;;;;;;;5093515;28;19928;-58
2022/01/30 07:38:21;;;;;;;;;;;;;;;;;;5093945;28;20022;-59
2022/01/30 07:40:48;;;;;;;;;;;;;;;;;;5092999;28;19924;-58
2022/01/30 07:43:14;;;;;;;;;;;;;;;;;;5093784;28;19928;-59
2022/01/30 07:45:40;;;;;;;;;;;;;;;;;;5093317;28;19969;-59
2022/01/30 07:48:06;;;;;;;;;;;;;;;;;;5092872;28;19928;-59
2022/01/30 07:50:32;;;;;;;;;;;;;;;;;;5093483;28;19977;-58
2022/01/30 07:52:58;;;;;;;;;;;;;;;;;;5093330;28;20072;-58
2022/01/30 07:55:24;;;;;;;;;;;;;;;;;;5092034;28;19932;-58
2022/01/30 07:57:50;;;;;;;;;;;;;;;;;;5091748;28;20333;-59
2022/01/30 08:00:17;;;;;;;;;;;;;;;;;;5093108;28;19924;-58
2022/01/30 08:02:43;;;;;;;;;;;;;;;;;;5092163;28;19928;-59
2022/01/30 08:05:09;;;;;;;;;;;;;;;;;;5093319;28;19928;-59
2022/01/30 08:07:35;;;;;;;;;;;;;;;;;;5092065;28;19985;-58
2022/01/30 08:10:01;;;;;;;;;;;;;;;;;;5093334;28;19924;-59
2022/01/30 08:12:27;;;;;;;;;;;;;;;;;;5092941;28;19924;-58
2022/01/30 08:14:53;;;;;;;;;;;;;;;;;;5092289;28;19977;-59
2022/01/30 08:17:22;;;;;;;;;;;;;;;;;;5093218;28;19924;-59
2022/01/30 08:19:48;;;;;;;;;;;;;;;;;;5092305;28;19947;-59
2022/01/30 08:22:14;;;;;;;;;;;;;;;;;;5092473;28;19971;-58
2022/01/30 08:24:40;;;;;;;;;;;;;;;;;;5092341;28;20424;-59
2022/01/30 08:27:06;;;;;;;;;;;;;;;;;;5093029;28;19928;-59
2022/01/30 08:29:32;;;;;;;;;;;;;;;;;;5091518;28;19924;-58
2022/01/30 08:31:58;;;;;;;;;;;;;;;;;;5092852;28;19924;-59
2022/01/30 08:34:24;;;;;;;;;;;;;;;;;;5092457;28;19934;-59
2022/01/30 08:36:50;;;;;;;;;;;;;;;;;;5092207;28;19924;-58
2022/01/30 08:39:16;;;;;;;;;;;;;;;;;;5092264;28;19925;-58
2022/01/30 08:41:42;;;;;;;;;;;;;;;;;;5092233;28;19928;-59
2022/01/30 08:44:09;;;;;;;;;;;;;;;;;;5091642;28;19970;-59
2022/01/30 08:46:35;;;;;;;;;;;;;;;;;;5091579;28;19928;-59
2022/01/30 08:49:01;;;;;;;;;;;;;;;;;;5092861;28;19924;-60
2022/01/30 08:51:27;;;;;;;;;;;;;;;;;;5091867;28;19924;-59
2022/01/30 08:53:53;;;;;;;;;;;;;;;;;;5092530;28;19928;-59
2022/01/30 08:56:21;;;;;;;;;;;;;;;;;;5092758;28;19924;-58
2022/01/30 08:58:47;;;;;;;;;;;;;;;;;;5091459;28;20044;-58
2022/01/30 09:01:13;;;;;;;;;;;;;;;;;;5092372;28;19985;-58
2022/01/30 09:03:39;;;;;;;;;;;;;;;;;;5091461;28;19928;-59
2022/01/30 09:06:06;;;;;;;;;;;;;;;;;;5092038;28;19925;-58
2022/01/30 09:08:32;;;;;;;;;;;;;;;;;;5091813;28;19965;-59
2022/01/30 09:10:58;;;;;;;;;;;;;;;;;;5091118;28;20357;-59
2022/01/30 09:13:24;;;;;;;;;;;;;;;;;;5091817;28;20382;-59
2022/01/30 09:15:56;;;;;;;;;;;;;;;;;;5092108;28;19928;-59
2022/01/30 09:18:22;;;;;;;;;;;;;;;;;;5091361;28;19924;-58
2022/01/30 09:20:48;;;;;;;;;;;;;;;;;;5091494;28;20363;-59
2022/01/30 09:23:14;;;;;;;;;;;;;;;;;;5092240;28;19998;-59
2022/01/30 09:25:40;;;;;;;;;;;;;;;;;;5090670;28;19969;-59
2022/01/30 09:28:06;;;;;;;;;;;;;;;;;;5092125;28;19928;-59
2022/01/30 09:30:32;;;;;;;;;;;;;;;;;;5091738;28;19924;-59
2022/01/30 09:32:58;;;;;;;;;;;;;;;;;;5091342;28;19977;-58
2022/01/30 09:35:24;;;;;;;;;;;;;;;;;;5091663;28;19925;-58
2022/01/30 09:37:51;;;;;;;;;;;;;;;;;;5091976;28;19924;-59
2022/01/30 09:40:17;;;;;;;;;;;;;;;;;;5090964;28;19932;-59
2022/01/30 09:42:44;;;;;;;;;;;;;;;;;;5091382;28;20279;-58
2022/01/30 09:45:11;;;;;;;;;;;;;;;;;;5091545;28;19930;-59
2022/01/30 09:47:37;;;;;;;;;;;;;;;;;;5090747;28;19928;-59
2022/01/30 09:50:03;;;;;;;;;;;;;;;;;;5091435;28;20447;-59
2022/01/30 09:52:29;;;;;;;;;;;;;;;;;;5091518;28;19927;-59
2022/01/30 09:54:55;;;;;;;;;;;;;;;;;;5090803;28;19928;-59
2022/01/30 09:57:21;;;;;;;;;;;;;;;;;;5094801;28;19924;-60
2022/01/30 09:59:48;;;;;;;;;;;;;;;;;;5095601;28;19970;-59
2022/01/30 10:02:14;;;;;;;;;;;;;;;;;;5094823;28;19932;-59
2022/01/30 10:04:40;;;;;;;;;;;;;;;;;;5095626;28;19924;-58
2022/01/30 10:07:11;;;;;;;;;;;;;;;;;;5094760;28;19951;-59
2022/01/30 10:09:43;;;;;;;;;;;;;;;;;;5095518;28;20010;-59
2022/01/30 10:12:16;;;;;;;;;;;;;;;;;;5095129;28;20030;-58
2022/01/30 10:14:42;;;;;;;;;;;;;;;;;;5093943;28;20383;-58
2022/01/30 10:17:08;;;;;;;;;;;;;;;;;;5094955;28;19927;-60
2022/01/30 10:19:34;;;;;;;;;;;;;;;;;;5094426;28;19950;-60
2022/01/30 10:22:00;;;;;;;;;;;;;;;;;;5094377;28;19924;-58
2022/01/30 10:24:27;;;;;;;;;;;;;;;;;;5094750;28;20383;-59
2022/01/30 10:26:53;;;;;;;;;;;;;;;;;;5095202;28;19977;-59
2022/01/30 10:29:19;;;;;;;;;;;;;;;;;;5094434;28;20290;-59
2022/01/30 10:31:45;;;;;;;;;;;;;;;;;;5094669;28;19930;-59
2022/01/30 10:34:11;;;;;;;;;;;;;;;;;;5095074;28;19924;-60
2022/01/30 10:36:37;;;;;;;;;;;;;;;;;;5093994;28;19932;-60
2022/01/30 10:39:06;;;;;;;;;;;;;;;;;;5095254;28;19974;-59
2022/01/30 10:41:32;;;;;;;;;;;;;;;;;;5094801;28;20018;-60
2022/01/30 10:43:59;;;;;;;;;;;;;;;;;;5094302;28;19969;-59
2022/01/30 10:46:25;;;;;;;;;;;;;;;;;;5094170;28;20023;-59
2022/01/30 10:48:51;;;;;;;;;;;;;;;;;;5094825;28;19924;-60
2022/01/30 10:51:17;;;;;;;;;;;;;;;;;;5094126;28;19953;-61
2022/01/30 10:53:43;;;;;;;;;;;;;;;;;;5094609;28;19953;-59
2022/01/30 10:56:09;;;;;;;;;;;;;;;;;;5094367;28;19924;-59
2022/01/30 10:58:35;;;;;;;;;;;;;;;;;;5094742;28;19977;-59
2022/01/30 11:01:01;;;;;;;;;;;;;;;;;;5094831;28;19924;-59
2022/01/30 11:03:27;;;;;;;;;;;;;;;;;;5093401;28;19924;-60
2022/01/30 11:05:53;;;;;;;;;;;;;;;;;;5094393;28;19978;-60
2022/01/30 11:08:19;;;;;;;;;;;;;;;;;;5093891;28;19929;-60
2022/01/30 11:10:46;;;;;;;;;;;;;;;;;;5093400;28;19970;-59
2022/01/30 11:13:21;;;;;;;;;;;;;;;;;;5093806;28;19924;-59
2022/01/30 11:16:54;;;;;;;;;;;;;;;;;;5093825;28;19993;-59
2022/01/30 11:18:33;;;;;;;;;;;;;;;;;;5092143;28;19967;-59
2022/01/30 11:20:59;;;;;;;;;;;;;;;;;;5093997;28;19977;-58
2022/01/30 11:23:26;;;;;;;;;;;;;;;;;;5093453;28;19923;-59
2022/01/30 11:25:52;;;;;;;;;;;;;;;;;;5089427;28;19924;-59
2022/01/30 11:28:18;;;;;;;;;;;;;;;;;;5093752;28;19978;-59
2022/01/30 11:30:44;;;;;;;;;;;;;;;;;;5093795;28;19935;-59
2022/01/30 11:33:10;;;;;;;;;;;;;;;;;;5092701;28;20341;-59
2022/01/30 11:35:36;;;;;;;;;;;;;;;;;;5093602;28;19928;-60
2022/01/30 11:38:04;;;;;;;;;;;;;;;;;;5093748;28;20349;-60
2022/01/30 11:40:30;;;;;;;;;;;;;;;;;;5092115;28;19968;-60
2022/01/30 11:42:56;;;;;;;;;;;;;;;;;;5093428;28;19945;-59
2022/01/30 11:45:24;;;;;;;;;;;;;;;;;;5093150;28;20566;-59
2022/01/30 11:47:51;;;;;;;;;;;;;;;;;;5093205;28;19931;-59
2022/01/30 11:50:17;;;;;;;;;;;;;;;;;;5093557;28;19977;-59
2022/01/30 11:52:43;;;;;;;;;;;;;;;;;;5092418;28;20000;-59
2022/01/30 11:55:09;;;;;;;;;;;;;;;;;;5093167;28;19928;-58
2022/01/30 11:57:35;;;;;;;;;;;;;;;;;;5092923;28;19924;-59
2022/01/30 12:00:01;;;;;;;;;;;;;;;;;;5092612;28;20287;-58
2022/01/30 12:02:28;;;;;;;;;;;;;;;;;;5093109;28;19923;-59
2022/01/30 12:04:54;;;;;;;;;;;;;;;;;;5093358;28;19931;-58
2022/01/30 12:07:20;;;;;;;;;;;;;;;;;;5092386;28;19928;-58
2022/01/30 12:09:46;;;;;;;;;;;;;;;;;;5092252;28;20386;-58
2022/01/30 12:12:12;;;;;;;;;;;;;;;;;;5093342;28;19924;-59
2022/01/30 12:14:38;;;;;;;;;;;;;;;;;;5091659;28;20432;-58
2022/01/30 12:17:05;;;;;;;;;;;;;;;;;;5093043;28;19932;-58
2022/01/30 12:19:31;;;;;;;;;;;;;;;;;;5090938;28;19924;-58
2022/01/30 12:21:57;;;;;;;;;;;;;;;;;;5092303;28;19973;-58
2022/01/30 12:24:23;;;;;;;;;;;;;;;;;;5092202;28;20370;-59
2022/01/30 12:26:49;;;;;;;;;;;;;;;;;;5092614;28;19924;-59
2022/01/30 12:29:15;;;;;;;;;;;;;;;;;;5091919;28;19924;-59
2022/01/30 12:31:41;;;;;;;;;;;;;;;;;;5092750;28;19924;-59
2022/01/30 12:34:07;;;;;;;;;;;;;;;;;;5092920;28;19978;-59
2022/01/30 12:36:35;;;;;;;;;;;;;;;;;;5091472;28;19940;-59
2022/01/30 12:39:01;;;;;;;;;;;;;;;;;;5092862;28;19931;-59
2022/01/30 12:41:27;;;;;;;;;;;;;;;;;;5092158;28;19928;-59
2022/01/30 12:43:54;;;;;;;;;;;;;;;;;;5089907;28;19928;-59
2022/01/30 12:46:20;;;;;;;;;;;;;;;;;;5092295;28;19924;-59
2022/01/30 12:48:46;;;;;;;;;;;;;;;;;;5091589;28;20392;-60
2022/01/30 12:51:14;;;;;;;;;;;;;;;;;;5092606;28;19924;-59
2022/01/30 12:53:41;;;;;;;;;;;;;;;;;;5092220;28;19930;-59
2022/01/30 12:56:08;;;;;;;;;;;;;;;;;;5091897;28;19973;-59
2022/01/30 12:58:34;;;;;;;;;;;;;;;;;;5091796;28;19928;-59
2022/01/30 13:01:00;;;;;;;;;;;;;;;;;;5092424;28;20022;-59
2022/01/30 13:03:26;;;;;;;;;;;;;;;;;;5091107;28;20421;-59
2022/01/30 13:05:53;;;;;;;;;;;;;;;;;;5092144;28;20223;-59
2022/01/30 13:08:19;;;;;;;;;;;;;;;;;;5092125;28;19938;-59
2022/01/30 13:10:45;;;;;;;;;;;;;;;;;;5091041;28;19924;-59
2022/01/30 13:13:11;;;;;;;;;;;;;;;;;;5091976;28;19969;-59
2022/01/30 13:15:39;;;;;;;;;;;;;;;;;;5092016;28;19928;-59
2022/01/30 13:18:05;;;;;;;;;;;;;;;;;;5091176;28;19989;-59
2022/01/30 13:20:31;;;;;;;;;;;;;;;;;;5092079;28;19993;-59
2022/01/30 13:22:57;;;;;;;;;;;;;;;;;;5092192;28;19923;-59
2022/01/30 13:25:23;;;;;;;;;;;;;;;;;;5091452;28;19978;-59
2022/01/30 13:27:49;;;;;;;;;;;;;;;;;;5091854;28;19932;-59
2022/01/30 13:30:15;;;;;;;;;;;;;;;;;;5091975;28;19924;-59
2022/01/30 13:32:41;;;;;;;;;;;;;;;;;;5090798;28;20437;-60
2022/01/30 13:35:07;;;;;;;;;;;;;;;;;;5092034;28;19924;-59
2022/01/30 13:37:36;;;;;;;;;;;;;;;;;;5091557;28;20452;-59
2022/01/30 13:40:06;;;;;;;;;;;;;;;;;;5091004;28;19975;-59
2022/01/30 13:42:43;;;;;;;;;;;;;;;;;;5091807;28;19924;-59
2022/01/30 13:47:49;;;;;;;;;;;;;;;;;;5090821;28;19928;-60
2022/01/30 13:50:15;;;;;;;;;;;;;;;;;;5091617;28;19946;-59
2022/01/30 13:52:41;;;;;;;;;;;;;;;;;;5090628;28;19985;-59
2022/01/30 13:55:07;;;;;;;;;;;;;;;;;;5091828;28;19977;-59
2022/01/30 13:57:33;;;;;;;;;;;;;;;;;;5091680;28;19928;-60
2022/01/30 14:00:00;;;;;;;;;;;;;;;;;;5091024;28;19932;-59
2022/01/30 14:02:26;;;;;;;;;;;;;;;;;;5091434;28;19924;-59
2022/01/30 14:04:52;;;;;;;;;;;;;;;;;;5091810;28;19924;-59
2022/01/30 14:07:18;;;;;;;;;;;;;;;;;;5090927;28;20007;-59
2022/01/30 14:09:48;;;;;;;;;;;;;;;;;;5091384;28;19928;-59
2022/01/30 14:12:15;;;;;;;;;;;;;;;;;;5091864;28;19931;-59
2022/01/30 14:14:41;;;;;;;;;;;;;;;;;;5090569;28;19924;-59
2022/01/30 14:17:09;;;;;;;;;;;;;;;;;;5091597;28;19924;-60
2022/01/30 14:19:41;;;;;;;;;;;;;;;;;;5091003;28;19924;-59
2022/01/30 14:22:07;;;;;;;;;;;;;;;;;;5090634;28;20436;-59
2022/01/30 14:24:33;;;;;;;;;;;;;;;;;;5091290;28;19928;-59
2022/01/30 14:26:59;;;;;;;;;;;;;;;;;;5091358;28;19973;-59
2022/01/30 14:29:26;;;;;;;;;;;;;;;;;;5090204;28;19928;-60
2022/01/30 14:31:52;;;;;;;;;;;;;;;;;;5091364;28;19924;-59
2022/01/30 14:34:18;;;;;;;;;;;;;;;;;;5090665;28;19924;-59
2022/01/30 14:36:44;;;;;;;;;;;;;;;;;;5090932;28;19932;-59
2022/01/30 14:39:11;;;;;;;;;;;;;;;;;;5091498;28;19924;-59
2022/01/30 14:41:37;;;;;;;;;;;;;;;;;;5090335;28;19924;-60
2022/01/30 14:44:03;;;;;;;;;;;;;;;;;;5093719;28;20440;-60
2022/01/30 14:46:29;;;;;;;;;;;;;;;;;;5094393;28;19974;-59
2022/01/30 14:48:55;;;;;;;;;;;;;;;;;;5093901;28;20379;-59
2022/01/30 14:51:21;;;;;;;;;;;;;;;;;;5094934;28;19927;-60
2022/01/30 14:53:47;;;;;;;;;;;;;;;;;;5094427;28;19924;-59
2022/01/30 14:56:13;;;;;;;;;;;;;;;;;;5093998;28;19924;-59
2022/01/30 14:58:39;;;;;;;;;;;;;;;;;;5094598;28;19928;-60
2022/01/30 15:01:05;;;;;;;;;;;;;;;;;;5094349;28;19977;-60
2022/01/30 15:03:33;;;;;;;;;;;;;;;;;;5093734;28;19924;-60
2022/01/30 15:05:59;;;;;;;;;;;;;;;;;;5094573;28;19931;-59
2022/01/30 15:08:25;;;;;;;;;;;;;;;;;;5093525;28;20363;-58
2022/01/30 15:10:51;;;;;;;;;;;;;;;;;;5093738;28;19977;-58
2022/01/30 15:13:20;;;;;;;;;;;;;;;;;;5094554;28;19969;-58
2022/01/30 15:15:46;;;;;;;;;;;;;;;;;;5093912;28;19924;-58
2022/01/30 15:18:18;;;;;;;;;;;;;;;;;;5093520;28;19946;-58
2022/01/30 15:20:44;;;;;;;;;;;;;;;;;;5094017;28;19928;-59
2022/01/30 15:23:11;;;;;;;;;;;;;;;;;;5094290;28;19931;-59
2022/01/30 15:25:37;;;;;;;;;;;;;;;;;;5093090;28;20322;-58
2022/01/30 15:28:03;;;;;;;;;;;;;;;;;;5094286;28;19924;-58
2022/01/30 15:30:29;;;;;;;;;;;;;;;;;;5092794;28;20348;-59
2022/01/30 15:32:55;;;;;;;;;;;;;;;;;;5093978;28;19924;-58
2022/01/30 15:35:21;;;;;;;;;;;;;;;;;;5093829;28;20422;-58
2022/01/30 15:37:47;;;;;;;;;;;;;;;;;;5093000;28;20372;-58
2022/01/30 15:40:14;;;;;;;;;;;;;;;;;;5093989;28;19954;-58
2022/01/30 15:42:40;;;;;;;;;;;;;;;;;;5093504;28;19984;-58
2022/01/30 15:50:34;;;;;;;;;;;;;;;;;;5093300;28;20370;-59
2022/01/30 15:53:00;;;;;;;;;;;;;;;;;;5092901;28;19924;-58
2022/01/30 15:55:26;;;;;;;;;;;;;;;;;;5092951;28;20332;-58
2022/01/30 15:57:52;;;;;;;;;;;;;;;;;;5093356;28;19924;-58
2022/01/30 16:00:18;;;;;;;;;;;;;;;;;;5092650;28;19924;-59
2022/01/30 16:02:44;;;;;;;;;;;;;;;;;;5093390;28;19928;-59
2022/01/30 16:05:10;;;;;;;;;;;;;;;;;;5093316;28;19954;-59
2022/01/30 16:07:37;;;;;;;;;;;;;;;;;;5092244;28;19935;-58
2022/01/30 16:10:07;;;;;;;;;;;;;;;;;;5093473;28;19924;-59
2022/01/30 16:18:00;;;;;;;;;;;;;;;;;;5089985;28;19919;-59
2022/01/30 16:20:26;;;;;;;;;;;;;;;;;;5091420;28;19928;-59
2022/01/30 16:22:52;;;;;;;;;;;;;;;;;;5092688;28;20630;-59
2022/01/30 16:25:19;;;;;;;;;;;;;;;;;;5092682;28;20334;-59
2022/01/30 16:27:45;;;;;;;;;;;;;;;;;;5091387;28;19925;-59
2022/01/30 16:30:11;;;;;;;;;;;;;;;;;;5092449;28;19924;-58
2022/01/30 16:32:37;;;;;;;;;;;;;;;;;;5092258;28;19924;-59
2022/01/30 16:35:03;;;;;;;;;;;;;;;;;;5091671;28;19924;-59
2022/01/30 16:37:29;;;;;;;;;;;;;;;;;;5092023;28;19932;-58
2022/01/30 16:39:56;;;;;;;;;;;;;;;;;;5092300;28;19950;-58
2022/01/30 16:42:24;;;;;;;;;;;;;;;;;;5091048;28;20393;-58
2022/01/30 16:44:50;;;;;;;;;;;;;;;;;;5091935;28;20019;-58
2022/01/30 16:47:29;;;;;;;;;;;;;;;;;;5091945;28;19924;-58
2022/01/30 16:49:55;;;;;;;;;;;;;;;;;;5091482;28;20354;-58
2022/01/30 16:52:21;;;;;;;;;;;;;;;;;;5092363;28;20225;-58
2022/01/30 16:54:47;;;;;;;;;;;;;;;;;;5092061;28;19928;-59
2022/01/30 16:57:13;;;;;;;;;;;;;;;;;;5091679;28;19969;-59
2022/01/30 16:59:39;;;;;;;;;;;;;;;;;;5091963;28;19997;-59
2022/01/30 17:02:05;;;;;;;;;;;;;;;;;;5091433;28;19924;-59
2022/01/30 17:04:31;;;;;;;;;;;;;;;;;;5091615;28;20364;-58
2022/01/30 17:06:57;;;;;;;;;;;;;;;;;;5091708;28;19977;-58
2022/01/30 17:09:26;;;;;;;;;;;;;;;;;;5091156;28;20432;-59
2022/01/30 17:12:00;;;;;;;;;;;;;;;;;;5091919;28;19924;-58
2022/01/30 17:14:26;;;;;;;;;;;;;;;;;;5091653;28;20383;-59
2022/01/30 17:16:52;;;;;;;;;;;;;;;;;;5091346;28;19974;-58
2022/01/30 17:19:18;;;;;;;;;;;;;;;;;;5091551;28;20363;-58
2022/01/30 17:21:44;;;;;;;;;;;;;;;;;;5091871;28;19936;-58
2022/01/30 17:24:10;;;;;;;;;;;;;;;;;;5091246;28;19924;-59
2022/01/30 17:26:37;;;;;;;;;;;;;;;;;;5091564;28;19978;-58